createdAt,value
2019-04-25T00:01:29.016Z,84.70
2019-04-25T00:03:59.138Z,84.60
2019-04-25T00:06:29.278Z,84.50
2019-04-25T00:08:59.614Z,84.60
2019-04-25T00:11:31.182Z,84.50
2019-04-25T00:14:01.603Z,84.70
2019-04-25T00:16:32.903Z,84.70
2019-04-25T00:19:02.965Z,84.50
2019-04-25T00:21:55.126Z,84.60
2019-04-25T00:24:33.417Z,84.70
2019-04-25T00:27:04.636Z,84.80
2019-04-25T00:29:34.805Z,85.00
2019-04-25T00:32:06.119Z,85.00
2019-04-25T00:34:37.461Z,85.10
2019-04-25T00:37:09.381Z,85.10
2019-04-25T00:39:39.629Z,85.10
2019-04-25T00:42:10.018Z,85.00
2019-04-25T00:44:42.506Z,85.20
2019-04-25T00:47:12.105Z,85.20
2019-04-25T00:49:44.054Z,84.70
2019-04-25T00:52:14.221Z,85.20
2019-04-25T00:54:44.514Z,85.20
2019-04-25T00:57:15.046Z,85.40
2019-04-25T00:59:52.811Z,85.50
2019-04-25T01:02:31.421Z,85.20
2019-04-25T01:05:01.978Z,85.60
2019-04-25T01:07:34.406Z,85.70
2019-04-25T01:10:06.650Z,85.80
2019-04-25T01:12:37.595Z,85.50
2019-04-25T01:15:09.609Z,85.70
2019-04-25T01:17:41.229Z,85.90
2019-04-25T01:20:13.897Z,85.70
2019-04-25T01:22:44.149Z,85.90
2019-04-25T01:25:14.653Z,85.60
2019-04-25T01:27:46.065Z,85.50
2019-04-25T01:30:19.353Z,85.60
2019-04-25T01:32:50.410Z,85.50
2019-04-25T01:35:29.542Z,85.50
2019-04-25T01:38:24.714Z,85.40
2019-04-25T01:41:14.439Z,85.70
2019-04-25T01:44:06.902Z,86.30
2019-04-25T01:46:39.188Z,86.30
2019-04-25T01:49:09.377Z,86.70
2019-04-25T01:51:39.471Z,86.80
2019-04-25T01:54:09.541Z,87.10
2019-04-25T01:56:39.693Z,87.20
2019-04-25T01:59:09.942Z,87.60
2019-04-25T02:01:40.927Z,87.40
2019-04-25T02:04:11.116Z,87.60
2019-04-25T02:06:41.259Z,88.30
2019-04-25T02:09:13.646Z,88.60
2019-04-25T02:11:58.908Z,89.70
2019-04-25T02:14:29.182Z,89.10
2019-04-25T02:17:00.245Z,89.50
2019-04-25T02:19:30.731Z,89.70
2019-04-25T02:22:00.864Z,89.70
2019-04-25T02:24:31.002Z,90.00
2019-04-25T02:27:01.188Z,90.10
2019-04-25T02:29:40.517Z,90.10
2019-04-25T02:32:10.642Z,90.30
2019-04-25T02:34:40.810Z,90.60
2019-04-25T02:37:10.964Z,90.70
2019-04-25T02:39:41.173Z,90.70
2019-04-25T02:42:11.317Z,90.70
2019-04-25T02:44:46.154Z,90.90
2019-04-25T02:47:24.900Z,91.00
2019-04-25T02:50:15.184Z,91.20
2019-04-25T02:52:54.250Z,91.30
2019-04-25T02:55:34.239Z,91.20
2019-04-25T02:57:57.043Z,91.10
2019-04-25T03:00:45.887Z,91.00
2019-04-25T03:03:01.181Z,91.00
2019-04-25T03:05:31.542Z,91.10
2019-04-25T03:08:05.381Z,91.00
2019-04-25T03:10:34.891Z,90.90
2019-04-25T03:13:10.224Z,90.90
2019-04-25T03:15:37.245Z,90.90
2019-04-25T03:18:11.941Z,91.00
2019-04-25T03:20:54.853Z,90.90
2019-04-25T03:23:37.914Z,90.90
2019-04-25T03:26:08.029Z,90.90
2019-04-25T03:28:38.149Z,90.80
2019-04-25T03:31:15.297Z,91.00
2019-04-25T03:33:40.172Z,91.00
2019-04-25T03:36:10.321Z,91.00
2019-04-25T03:38:40.473Z,91.00
2019-04-25T03:41:10.650Z,91.00
2019-04-25T03:43:40.915Z,90.90
2019-04-25T03:46:11.157Z,90.90
2019-04-25T03:48:41.311Z,90.80
2019-04-25T03:51:12.191Z,90.70
2019-04-25T03:53:43.736Z,90.60
2019-04-25T03:56:14.610Z,90.60
2019-04-25T03:58:45.052Z,90.80
2019-04-25T04:01:15.719Z,90.70
2019-04-25T04:03:46.021Z,90.60
2019-04-25T04:06:16.186Z,90.60
2019-04-25T04:08:46.397Z,90.50
2019-04-25T04:11:16.538Z,90.60
2019-04-25T04:13:46.678Z,90.60
2019-04-25T04:16:19.609Z,90.60
2019-04-25T04:18:51.743Z,90.70
2019-04-25T04:21:49.902Z,90.60
2019-04-25T04:24:34.235Z,90.60
2019-04-25T04:27:17.011Z,90.50
2019-04-25T04:29:47.230Z,90.70
2019-04-25T04:32:17.538Z,90.40
2019-04-25T04:34:47.702Z,90.30
2019-04-25T04:37:17.813Z,90.30
2019-04-25T04:39:48.024Z,90.10
2019-04-25T04:42:18.214Z,90.20
2019-04-25T04:44:48.338Z,90.20
2019-04-25T04:47:18.605Z,90.30
2019-04-25T04:49:49.923Z,90.20
2019-04-25T04:52:20.073Z,90.40
2019-04-25T04:54:50.165Z,90.50
2019-04-25T04:57:28.869Z,90.70
2019-04-25T04:59:53.487Z,90.50
2019-04-25T05:02:43.265Z,90.40
2019-04-25T05:05:45.125Z,90.20
2019-04-25T05:08:21.239Z,90.10
2019-04-25T05:10:51.431Z,90.10
2019-04-25T05:13:22.073Z,89.90
2019-04-25T05:15:53.243Z,89.40
2019-04-25T05:18:34.572Z,88.80
2019-04-25T05:20:56.334Z,88.50
2019-04-25T05:23:26.562Z,87.70
2019-04-25T05:25:56.733Z,86.80
2019-04-25T05:28:26.926Z,87.20
2019-04-25T05:31:15.411Z,86.80
2019-04-25T05:33:44.855Z,85.70
2019-04-25T05:36:15.495Z,86.60
2019-04-25T05:38:46.748Z,85.50
2019-04-25T05:41:33.752Z,85.10
2019-04-25T05:44:04.989Z,84.20
2019-04-25T05:46:35.350Z,84.70
2019-04-25T05:49:05.589Z,84.50
2019-04-25T05:51:35.736Z,84.50
2019-04-25T05:54:06.086Z,84.20
2019-04-25T05:56:36.179Z,83.80
2019-04-25T05:59:06.498Z,84.40
2019-04-25T06:01:36.695Z,84.10
2019-04-25T06:04:06.782Z,83.30
2019-04-25T06:06:36.992Z,83.50
2019-04-25T06:09:21.811Z,83.70
2019-04-25T06:12:03.108Z,82.70
2019-04-25T06:14:34.718Z,82.60
2019-04-25T06:17:08.166Z,81.90
2019-04-25T06:19:50.457Z,81.80
2019-04-25T06:22:26.806Z,81.90
2019-04-25T06:25:02.283Z,80.40
2019-04-25T06:27:40.903Z,80.50
2019-04-25T06:30:27.322Z,80.30
2019-04-25T06:32:57.938Z,80.50
2019-04-25T06:35:28.364Z,80.20
2019-04-25T06:37:58.492Z,80.00
2019-04-25T06:40:32.435Z,80.00
2019-04-25T06:43:03.410Z,79.70
2019-04-25T06:45:54.084Z,78.80
2019-04-25T06:48:37.437Z,78.80
2019-04-25T06:51:07.590Z,78.10
2019-04-25T06:53:37.696Z,77.70
2019-04-25T06:56:07.858Z,77.80
2019-04-25T06:58:38.126Z,77.90
2019-04-25T07:01:08.231Z,76.20
2019-04-25T07:03:38.442Z,75.40
2019-04-25T07:06:08.634Z,75.20
2019-04-25T07:08:38.857Z,73.30
2019-04-25T07:11:09.893Z,74.50
2019-04-25T07:13:40.123Z,73.70
2019-04-25T07:16:10.455Z,73.80
2019-04-25T07:18:40.745Z,72.10
2019-04-25T07:21:10.912Z,72.40
2019-04-25T07:23:41.179Z,72.30
2019-04-25T07:26:30.396Z,71.60
2019-04-25T07:29:13.570Z,70.60
2019-04-25T07:32:03.920Z,67.60
2019-04-25T07:34:35.582Z,66.40
2019-04-25T07:37:05.719Z,66.30
2019-04-25T07:39:36.465Z,66.30
2019-04-25T07:42:06.751Z,67.00
2019-04-25T07:44:49.310Z,66.40
2019-04-25T07:47:08.942Z,67.20
2019-04-25T07:49:39.066Z,65.70
2019-04-25T07:52:11.486Z,66.80
2019-04-25T07:54:41.253Z,65.90
2019-04-25T07:57:11.494Z,68.10
2019-04-25T07:59:41.723Z,66.70
2019-04-25T08:02:13.356Z,66.60
2019-04-25T08:04:44.683Z,66.70
2019-04-25T08:07:16.118Z,66.00
2019-04-25T08:09:46.308Z,66.00
2019-04-25T08:12:16.506Z,64.30
2019-04-25T08:15:13.776Z,64.60
2019-04-25T08:18:01.329Z,63.60
2019-04-25T08:20:32.414Z,62.90
2019-04-25T08:23:04.746Z,62.20
2019-04-25T08:25:37.648Z,61.90
2019-04-25T08:28:06.880Z,60.90
2019-04-25T08:30:38.139Z,60.00
2019-04-25T08:33:08.416Z,60.00
2019-04-25T08:35:38.779Z,60.50
2019-04-25T08:38:08.919Z,60.00
2019-04-25T08:40:40.299Z,60.00
2019-04-25T08:43:10.578Z,59.70
2019-04-25T08:45:40.835Z,58.50
2019-04-25T08:48:10.915Z,57.40
2019-04-25T08:50:47.883Z,56.90
2019-04-25T08:53:18.007Z,56.70
2019-04-25T08:55:57.471Z,56.40
2019-04-25T08:59:03.302Z,57.30
2019-04-25T09:01:29.521Z,55.50
2019-04-25T09:04:13.846Z,55.50
2019-04-25T09:06:44.302Z,55.00
2019-04-25T09:09:14.545Z,54.30
2019-04-25T09:11:46.893Z,54.10
2019-04-25T09:14:16.755Z,52.70
2019-04-25T09:16:46.894Z,52.20
2019-04-25T09:19:17.074Z,50.90
2019-04-25T09:21:49.537Z,52.30
2019-04-25T09:24:19.077Z,53.10
2019-04-25T09:26:49.199Z,52.60
2019-04-25T09:29:20.019Z,51.70
2019-04-25T09:31:50.479Z,51.50
2019-04-25T09:34:20.702Z,50.20
2019-04-25T09:36:50.810Z,50.40
2019-04-25T09:39:43.478Z,50.60
2019-04-25T09:42:14.555Z,52.10
2019-04-25T09:45:03.778Z,51.20
2019-04-25T09:47:36.259Z,50.80
2019-04-25T09:50:11.603Z,49.90
2019-04-25T09:52:44.033Z,50.80
2019-04-25T09:55:22.460Z,50.80
2019-04-25T09:57:55.674Z,50.10
2019-04-25T10:00:36.383Z,50.90
2019-04-25T10:03:06.782Z,49.70
2019-04-25T10:05:37.031Z,49.70
2019-04-25T10:08:07.333Z,50.70
2019-04-25T10:10:38.777Z,48.90
2019-04-25T10:13:09.063Z,47.90
2019-04-25T10:16:03.280Z,49.10
2019-04-25T10:18:37.714Z,47.40
2019-04-25T10:21:11.106Z,46.30
2019-04-25T10:23:44.054Z,46.50
2019-04-25T10:26:14.503Z,46.00
2019-04-25T10:28:45.182Z,46.40
2019-04-25T10:31:15.626Z,45.80
2019-04-25T10:33:47.009Z,45.40
2019-04-25T10:36:17.505Z,45.50
2019-04-25T10:39:03.295Z,45.10
2019-04-25T10:41:20.056Z,44.00
2019-04-25T10:43:50.497Z,44.80
2019-04-25T10:46:21.700Z,44.70
2019-04-25T10:48:54.004Z,44.20
2019-04-25T10:51:24.020Z,44.30
2019-04-25T10:53:55.114Z,44.70
2019-04-25T10:56:25.322Z,44.80
2019-04-25T10:58:55.566Z,44.10
2019-04-25T11:01:25.758Z,44.60
2019-04-25T11:04:04.798Z,44.30
2019-04-25T11:06:36.318Z,44.00
2019-04-25T11:09:09.696Z,44.90
2019-04-25T11:11:40.733Z,44.80
2019-04-25T11:14:13.535Z,43.80
2019-04-25T11:16:45.535Z,43.60
2019-04-25T11:19:16.001Z,43.50
2019-04-25T11:21:46.634Z,43.10
2019-04-25T11:24:16.923Z,42.60
2019-04-25T11:26:49.903Z,43.50
2019-04-25T11:29:19.423Z,43.60
2019-04-25T11:31:49.586Z,43.50
2019-04-25T11:34:20.606Z,43.20
2019-04-25T11:36:50.876Z,43.70
2019-04-25T11:39:47.287Z,42.30
2019-04-25T11:42:17.516Z,42.00
2019-04-25T11:47:03.846Z,40.60
2019-04-25T11:49:34.664Z,41.00
2019-04-25T11:52:05.506Z,41.20
2019-04-25T11:54:35.834Z,41.50
2019-04-25T11:57:06.164Z,42.60
2019-04-25T11:59:36.386Z,43.00
2019-04-25T12:02:08.158Z,42.60
2019-04-25T12:04:38.361Z,43.60
2019-04-25T12:07:09.522Z,44.20
2019-04-25T12:09:39.947Z,44.10
2019-04-25T12:12:10.157Z,44.20
2019-04-25T12:14:40.461Z,42.80
2019-04-25T12:17:10.566Z,42.10
2019-04-25T12:19:40.906Z,43.30
2019-04-25T12:22:10.957Z,44.10
2019-04-25T12:24:41.230Z,42.90
2019-04-25T12:27:11.387Z,43.10
2019-04-25T12:29:41.485Z,44.00
2019-04-25T12:32:12.117Z,43.30
2019-04-25T12:34:42.348Z,43.40
2019-04-25T12:37:12.514Z,43.30
2019-04-25T12:39:42.626Z,43.60
2019-04-25T12:42:14.354Z,44.90
2019-04-25T12:45:06.479Z,45.20
2019-04-25T12:47:40.341Z,43.50
2019-04-25T12:50:10.749Z,43.30
2019-04-25T12:52:40.972Z,43.10
2019-04-25T12:55:13.994Z,42.00
2019-04-25T12:57:44.383Z,42.70
2019-04-25T13:00:17.222Z,42.10
2019-04-25T13:02:47.473Z,41.30
2019-04-25T13:05:17.626Z,42.10
2019-04-25T13:07:47.834Z,42.50
2019-04-25T13:10:18.156Z,42.10
2019-04-25T13:12:51.116Z,42.50
2019-04-25T13:15:21.374Z,42.10
2019-04-25T13:17:51.506Z,42.80
2019-04-25T13:20:21.741Z,42.30
2019-04-25T13:22:52.940Z,42.90
2019-04-25T13:25:24.380Z,43.00
2019-04-25T13:28:09.189Z,43.50
2019-04-25T13:31:04.142Z,46.60
2019-04-25T13:33:40.706Z,45.80
2019-04-25T13:36:13.422Z,45.80
2019-04-25T13:38:43.624Z,45.80
2019-04-25T13:41:15.360Z,46.60
2019-04-25T13:43:45.670Z,46.10
2019-04-25T13:46:19.661Z,45.60
2019-04-25T13:48:47.783Z,45.80
2019-04-25T13:51:18.015Z,45.30
2019-04-25T13:53:48.194Z,45.20
2019-04-25T13:56:18.857Z,45.80
2019-04-25T13:58:49.142Z,45.80
2019-04-25T14:01:20.262Z,45.90
2019-04-25T14:03:51.237Z,45.70
2019-04-25T14:06:21.566Z,44.90
2019-04-25T14:08:53.267Z,44.60
2019-04-25T14:11:24.167Z,44.40
2019-04-25T14:13:54.383Z,44.10
2019-04-25T14:16:35.194Z,46.10
2019-04-25T14:19:25.196Z,44.00
2019-04-25T14:21:58.310Z,45.70
2019-04-25T14:24:30.757Z,46.50
2019-04-25T14:27:00.319Z,45.90
2019-04-25T14:29:31.024Z,46.50
2019-04-25T14:32:03.285Z,46.80
2019-04-25T14:34:34.462Z,46.70
2019-04-25T14:37:05.726Z,46.60
2019-04-25T14:39:36.036Z,45.40
2019-04-25T14:42:06.334Z,47.10
2019-04-25T14:44:36.467Z,47.00
2019-04-25T14:47:06.614Z,46.40
2019-04-25T14:49:36.761Z,46.60
2019-04-25T14:52:06.951Z,46.80
2019-04-25T14:54:46.174Z,47.30
2019-04-25T14:57:21.851Z,45.20
2019-04-25T14:59:53.115Z,45.40
2019-04-25T15:02:25.722Z,45.40
2019-04-25T15:04:56.098Z,44.50
2019-04-25T15:07:26.173Z,43.70
2019-04-25T15:09:56.315Z,43.60
2019-04-25T15:12:26.873Z,43.70
2019-04-25T15:14:57.130Z,44.80
2019-04-25T15:17:27.268Z,44.60
2019-04-25T15:19:57.397Z,43.90
2019-04-25T15:22:27.978Z,45.00
2019-04-25T15:24:58.145Z,45.50
2019-04-25T15:27:29.111Z,45.80
2019-04-25T15:29:59.388Z,45.90
2019-04-25T15:32:32.654Z,46.40
2019-04-25T15:35:02.988Z,46.50
2019-04-25T15:37:51.776Z,47.30
2019-04-25T15:40:36.509Z,47.60
2019-04-25T15:43:23.826Z,47.60
2019-04-25T15:46:11.088Z,48.10
2019-04-25T15:48:41.312Z,47.80
2019-04-25T15:51:11.434Z,48.50
2019-04-25T15:53:42.292Z,48.60
2019-04-25T15:56:12.488Z,49.00
2019-04-25T15:58:42.729Z,49.60
2019-04-25T16:01:13.101Z,50.50
2019-04-25T16:03:43.301Z,50.50
2019-04-25T16:06:13.484Z,50.30
2019-04-25T16:08:43.654Z,50.30
2019-04-25T16:11:14.085Z,50.70
2019-04-25T16:13:44.226Z,51.70
2019-04-25T16:16:14.486Z,51.70
2019-04-25T16:18:44.662Z,52.20
2019-04-25T16:21:15.185Z,52.60
2019-04-25T16:23:45.479Z,52.40
2019-04-25T16:26:15.721Z,52.90
2019-04-25T16:28:45.886Z,52.60
2019-04-25T16:31:19.223Z,52.90
2019-04-25T16:33:49.606Z,53.30
2019-04-25T16:36:19.875Z,53.60
2019-04-25T16:38:50.079Z,53.10
2019-04-25T16:41:20.869Z,53.30
2019-04-25T16:43:54.991Z,52.60
2019-04-25T16:46:25.971Z,52.80
2019-04-25T16:48:56.326Z,54.00
2019-04-25T16:51:26.983Z,54.60
2019-04-25T16:53:57.079Z,56.30
2019-04-25T16:56:28.264Z,53.90
2019-04-25T16:58:59.866Z,55.40
2019-04-25T17:01:31.684Z,55.20
2019-04-25T17:04:02.003Z,55.20
2019-04-25T17:06:32.126Z,56.00
2019-04-25T17:09:02.261Z,55.80
2019-04-25T17:11:34.085Z,56.00
2019-04-25T17:14:33.375Z,56.80
2019-04-25T17:17:18.547Z,57.50
2019-04-25T17:19:56.836Z,57.80
2019-04-25T17:22:26.970Z,57.60
2019-04-25T17:24:57.033Z,57.10
2019-04-25T17:27:27.270Z,56.80
2019-04-25T17:29:57.525Z,58.00
2019-04-25T17:32:53.535Z,57.60
2019-04-25T17:35:44.360Z,58.90
2019-04-25T17:38:19.541Z,58.40
2019-04-25T17:40:49.869Z,59.90
2019-04-25T17:43:20.167Z,59.10
2019-04-25T17:45:50.419Z,59.50
2019-04-25T17:48:20.621Z,59.80
2019-04-25T17:50:50.834Z,60.80
2019-04-25T17:53:20.945Z,62.40
2019-04-25T17:55:51.153Z,64.00
2019-04-25T17:58:22.421Z,64.00
2019-04-25T18:00:52.612Z,63.70
2019-04-25T18:03:23.035Z,64.20
2019-04-25T18:05:53.370Z,65.20
2019-04-25T18:08:23.845Z,64.70
2019-04-25T18:10:54.241Z,64.70
2019-04-25T18:13:24.496Z,65.60
2019-04-25T18:16:19.614Z,65.80
2019-04-25T18:19:20.966Z,67.00
2019-04-25T18:21:51.292Z,67.00
2019-04-25T18:24:39.161Z,67.40
2019-04-25T18:27:28.455Z,68.10
2019-04-25T18:29:58.686Z,68.20
2019-04-25T18:32:32.291Z,68.60
2019-04-25T18:35:17.395Z,69.20
2019-04-25T18:38:06.744Z,69.00
2019-04-25T18:40:59.332Z,70.70
2019-04-25T18:43:33.710Z,70.20
2019-04-25T18:46:09.029Z,70.20
2019-04-25T18:48:39.194Z,70.50
2019-04-25T18:51:12.649Z,70.60
2019-04-25T18:54:01.977Z,71.00
2019-04-25T18:56:47.481Z,72.60
2019-04-25T18:59:46.053Z,72.20
2019-04-25T19:02:54.674Z,72.70
2019-04-25T19:05:43.833Z,74.40
2019-04-25T19:08:14.177Z,73.00
2019-04-25T19:10:45.106Z,74.10
2019-04-25T19:13:15.438Z,74.80
2019-04-25T19:15:45.858Z,75.30
2019-04-25T19:18:16.461Z,75.50
2019-04-25T19:20:46.721Z,75.50
2019-04-25T19:23:16.965Z,75.90
2019-04-25T19:25:47.924Z,76.90
2019-04-25T19:28:18.210Z,77.30
2019-04-25T19:30:48.435Z,77.80
2019-04-25T19:33:19.187Z,78.50
2019-04-25T19:35:49.559Z,78.80
2019-04-25T19:38:19.771Z,79.80
2019-04-25T19:40:59.251Z,80.70
2019-04-25T19:43:47.125Z,82.20
2019-04-25T19:46:18.491Z,81.80
2019-04-25T19:48:49.124Z,83.10
2019-04-25T19:51:21.828Z,83.90
2019-04-25T19:53:51.997Z,84.00
2019-04-25T19:56:22.155Z,84.80
2019-04-25T19:58:52.801Z,85.10
2019-04-25T20:01:23.031Z,85.70
2019-04-25T20:04:00.470Z,85.80
2019-04-25T20:06:48.266Z,86.80
2019-04-25T20:09:36.217Z,87.50
2019-04-25T20:12:06.719Z,88.00
2019-04-25T20:14:37.123Z,88.60
2019-04-25T20:17:07.390Z,89.00
2019-04-25T20:19:37.601Z,89.70
2019-04-25T20:22:07.772Z,89.60
2019-04-25T20:24:37.960Z,90.30
2019-04-25T20:27:08.834Z,90.40
2019-04-25T20:29:38.891Z,90.70
2019-04-25T20:32:09.089Z,90.60
2019-04-25T20:34:39.286Z,90.90
2019-04-25T20:37:09.510Z,91.20
2019-04-25T20:39:39.754Z,91.50
2019-04-25T20:42:10.579Z,91.50
2019-04-25T20:44:40.738Z,92.00
2019-04-25T20:47:10.998Z,92.20
2019-04-25T20:49:41.194Z,93.00
2019-04-25T20:52:13.666Z,93.20
2019-04-25T20:54:43.780Z,93.60
2019-04-25T20:57:13.923Z,93.80
2019-04-25T20:59:44.138Z,93.80
2019-04-25T21:02:14.411Z,94.40
2019-04-25T21:04:44.738Z,94.70
2019-04-25T21:07:14.918Z,94.70
2019-04-25T21:09:45.679Z,95.00
2019-04-25T21:12:15.842Z,95.10
2019-04-25T21:15:01.122Z,95.00
2019-04-25T21:17:34.711Z,94.90
2019-04-25T21:20:05.374Z,95.10
2019-04-25T21:22:35.471Z,95.60
2019-04-25T21:25:06.068Z,95.60
2019-04-25T21:27:36.310Z,95.70
2019-04-25T21:30:06.761Z,95.90
2019-04-25T21:32:53.948Z,95.60
2019-04-25T21:35:24.989Z,96.00
2019-04-25T21:37:55.451Z,96.60
2019-04-25T21:40:51.333Z,96.30
2019-04-25T21:43:24.768Z,96.40
2019-04-25T21:45:55.992Z,96.60
2019-04-25T21:48:26.737Z,96.50
2019-04-25T21:50:57.326Z,96.70
2019-04-25T21:53:27.657Z,96.90
2019-04-25T21:55:58.054Z,96.80
2019-04-25T21:58:28.507Z,97.00
2019-04-25T22:01:10.836Z,97.30
2019-04-25T22:03:42.694Z,97.90
2019-04-25T22:06:13.308Z,97.90
2019-04-25T22:08:43.546Z,97.60
2019-04-25T22:11:13.742Z,98.10
2019-04-25T22:13:44.190Z,98.10
2019-04-25T22:16:14.602Z,98.30
2019-04-25T22:18:45.096Z,98.50
2019-04-25T22:21:15.657Z,98.30
2019-04-25T22:23:46.258Z,98.60
2019-04-25T22:26:16.477Z,98.60
2019-04-25T22:28:47.194Z,98.70
2019-04-25T22:31:21.950Z,98.80
2019-04-25T22:34:11.611Z,99.00
2019-04-25T22:36:42.328Z,99.30
2019-04-25T22:39:12.911Z,99.70
2019-04-25T22:41:46.827Z,99.70
2019-04-25T22:44:19.730Z,99.70
2019-04-25T22:46:50.447Z,99.50
2019-04-25T22:49:20.597Z,99.60
2019-04-25T22:51:50.861Z,99.90
2019-04-25T22:54:22.437Z,99.90
2019-04-25T22:56:52.793Z,99.90
2019-04-25T22:59:24.490Z,99.90
2019-04-25T23:02:12.606Z,99.90
2019-04-25T23:05:09.078Z,99.90
2019-04-25T23:07:34.225Z,99.90
2019-04-25T23:10:06.233Z,99.90
2019-04-25T23:12:36.719Z,99.90
2019-04-25T23:15:07.575Z,99.90
2019-04-25T23:17:37.744Z,99.90
2019-04-25T23:20:09.568Z,99.90
2019-04-25T23:22:39.889Z,99.90
2019-04-25T23:25:12.266Z,99.90
2019-04-25T23:28:16.541Z,99.90
2019-04-25T23:31:18.389Z,99.90
2019-04-25T23:33:48.646Z,99.90
2019-04-25T23:36:19.082Z,99.90
2019-04-25T23:38:49.319Z,99.90
2019-04-25T23:41:20.148Z,99.90
2019-04-25T23:43:50.334Z,99.90
2019-04-25T23:46:20.542Z,99.90
2019-04-25T23:48:50.791Z,99.90
2019-04-25T23:51:21.017Z,99.90
2019-04-25T23:53:51.474Z,99.90
2019-04-25T23:56:21.626Z,99.90
2019-04-25T23:58:51.797Z,99.90
